createdAt,value
2022-10-24T00:01:25.485Z,100485.19
2022-10-24T00:03:53.070Z,100480.84
2022-10-24T00:06:21.165Z,100483.78
2022-10-24T00:08:49.095Z,100482.13
2022-10-24T00:11:19.469Z,100482.34
2022-10-24T00:13:47.076Z,100488.75
2022-10-24T00:16:15.007Z,100474.75
2022-10-24T00:18:44.324Z,100483.84
2022-10-24T00:21:12.194Z,100481.38
2022-10-24T00:23:40.106Z,100477.66
2022-10-24T00:26:08.710Z,100477.66
2022-10-24T00:28:37.206Z,100488.16
2022-10-24T00:31:06.442Z,100481.97
2022-10-24T00:33:34.278Z,100484.41
2022-10-24T00:36:03.249Z,100486.06
2022-10-24T00:38:30.826Z,100480.50
2022-10-24T00:40:58.373Z,100492.00
2022-10-24T00:43:27.297Z,100489.34
2022-10-24T00:45:56.639Z,100479.44
2022-10-24T00:48:28.201Z,100481.91
2022-10-24T00:50:59.898Z,100485.63
2022-10-24T00:53:32.618Z,100479.69
2022-10-24T00:56:03.117Z,100483.38
2022-10-24T00:58:33.586Z,100482.19
2022-10-24T01:01:01.546Z,100487.53
2022-10-24T01:03:29.267Z,100487.97
2022-10-24T01:06:21.325Z,100484.50
2022-10-24T01:08:59.645Z,100498.94
2022-10-24T01:11:41.598Z,100484.50
2022-10-24T01:14:19.462Z,100482.28
2022-10-24T01:16:51.825Z,100472.78
2022-10-24T01:19:42.780Z,100481.66
2022-10-24T01:22:16.224Z,100475.72
2022-10-24T01:25:05.473Z,100466.25
2022-10-24T01:27:50.861Z,100459.50
2022-10-24T01:30:20.594Z,100464.84
2022-10-24T01:32:56.905Z,100459.50
2022-10-24T01:35:35.856Z,100456.81
2022-10-24T01:38:10.950Z,100452.25
2022-10-24T01:40:45.517Z,100454.13
2022-10-24T01:43:16.110Z,100456.00
2022-10-24T01:45:50.121Z,100456.19
2022-10-24T01:48:22.606Z,100459.13
2022-10-24T01:50:53.515Z,100453.97
2022-10-24T01:53:24.883Z,100446.75
2022-10-24T01:55:54.449Z,100440.81
2022-10-24T01:58:22.137Z,100447.00
2022-10-24T02:00:53.149Z,100439.97
2022-10-24T02:03:25.544Z,100444.53
2022-10-24T02:05:57.424Z,100448.22
2022-10-24T02:08:29.414Z,100447.19
2022-10-24T02:11:01.207Z,100441.25
2022-10-24T02:13:35.210Z,100444.75
2022-10-24T02:16:06.110Z,100443.09
2022-10-24T02:18:34.539Z,100440.66
2022-10-24T02:21:13.795Z,100433.41
2022-10-24T02:23:48.594Z,100435.31
2022-10-24T02:26:27.938Z,100423.78
2022-10-24T02:28:59.851Z,100431.19
2022-10-24T02:31:35.489Z,100422.34
2022-10-24T02:34:06.920Z,100420.91
2022-10-24T02:36:36.750Z,100421.97
2022-10-24T02:39:08.004Z,100416.81
2022-10-24T02:41:38.586Z,100408.41
2022-10-24T02:44:08.061Z,100414.81
2022-10-24T02:46:37.894Z,100412.59
2022-10-24T02:49:06.362Z,100417.31
2022-10-24T02:51:36.742Z,100416.72
2022-10-24T02:54:05.108Z,100411.34
2022-10-24T02:56:32.722Z,100409.72
2022-10-24T02:59:00.432Z,100409.94
2022-10-24T03:01:28.145Z,100404.00
2022-10-24T03:03:57.133Z,100396.19
2022-10-24T03:06:25.010Z,100391.06
2022-10-24T03:08:52.542Z,100393.94
2022-10-24T03:11:20.342Z,100389.03
2022-10-24T03:13:47.876Z,100388.19
2022-10-24T03:16:15.405Z,100394.00
2022-10-24T03:18:42.966Z,100390.72
2022-10-24T03:21:11.944Z,100385.59
2022-10-24T03:23:39.489Z,100382.31
2022-10-24T03:26:07.541Z,100374.53
2022-10-24T03:28:35.224Z,100381.13
2022-10-24T03:31:02.764Z,100381.34
2022-10-24T03:33:30.354Z,100371.06
2022-10-24T03:35:58.201Z,100373.97
2022-10-24T03:38:27.108Z,100364.50
2022-10-24T03:40:54.726Z,100365.56
2022-10-24T03:43:22.277Z,100362.50
2022-10-24T03:45:49.793Z,100367.03
2022-10-24T03:48:17.442Z,100364.59
2022-10-24T03:50:44.973Z,100374.47
2022-10-24T03:53:12.685Z,100381.09
2022-10-24T03:55:41.591Z,100377.59
2022-10-24T03:58:09.227Z,100373.25
2022-10-24T04:00:40.323Z,100375.94
2022-10-24T04:03:09.628Z,100366.25
2022-10-24T04:05:37.204Z,100361.75
2022-10-24T04:08:05.169Z,100366.25
2022-10-24T04:10:32.690Z,100360.13
2022-10-24T04:13:01.585Z,100349.41
2022-10-24T04:15:29.181Z,100350.44
2022-10-24T04:17:56.716Z,100344.50
2022-10-24T04:20:24.287Z,100343.09
2022-10-24T04:22:51.839Z,100340.63
2022-10-24T04:25:19.829Z,100342.72
2022-10-24T04:27:47.572Z,100346.41
2022-10-24T04:30:17.104Z,100348.25
2022-10-24T04:32:45.028Z,100348.25
2022-10-24T04:35:13.854Z,100349.53
2022-10-24T04:37:41.562Z,100348.69
2022-10-24T04:40:09.998Z,100343.34
2022-10-24T04:42:37.549Z,100343.59
2022-10-24T04:45:05.826Z,100354.03
2022-10-24T04:47:34.702Z,100349.75
2022-10-24T04:50:02.369Z,100347.88
2022-10-24T04:52:29.939Z,100339.25
2022-10-24T04:54:57.473Z,100349.13
2022-10-24T04:57:25.014Z,100336.59
2022-10-24T04:59:52.622Z,100349.13
2022-10-24T05:02:20.602Z,100343.59
2022-10-24T05:04:49.512Z,100343.34
2022-10-24T05:07:17.094Z,100344.41
2022-10-24T05:09:44.630Z,100342.75
2022-10-24T05:12:12.198Z,100338.22
2022-10-24T05:14:39.751Z,100337.59
2022-10-24T05:17:07.505Z,100342.75
2022-10-24T05:19:36.267Z,100330.41
2022-10-24T05:22:07.284Z,100328.78
2022-10-24T05:24:37.634Z,100329.81
2022-10-24T05:27:05.574Z,100332.25
2022-10-24T05:29:33.117Z,100334.94
2022-10-24T05:32:00.693Z,100339.25
2022-10-24T05:34:28.566Z,100339.84
2022-10-24T05:36:56.138Z,100340.66
2022-10-24T05:39:25.096Z,100335.94
2022-10-24T05:41:55.275Z,100335.50
2022-10-24T05:44:23.283Z,100340.19
2022-10-24T05:46:50.827Z,100331.72
2022-10-24T05:49:18.362Z,100340.13
2022-10-24T05:51:46.011Z,100343.19
2022-10-24T05:56:47.455Z,100338.81
2022-10-24T05:59:15.305Z,100334.06
2022-10-24T06:01:43.150Z,100340.44
2022-10-24T06:04:13.043Z,100338.59
2022-10-24T06:06:42.625Z,100335.91
2022-10-24T06:09:10.574Z,100336.16
2022-10-24T06:11:38.236Z,100322.97
2022-10-24T06:14:07.150Z,100332.06
2022-10-24T06:16:34.714Z,100331.44
2022-10-24T06:19:02.339Z,100337.03
2022-10-24T06:21:30.008Z,100332.69
2022-10-24T06:23:58.129Z,100329.19
2022-10-24T06:26:26.084Z,100342.00
2022-10-24T06:28:54.601Z,100335.59
2022-10-24T06:31:25.615Z,100337.22
2022-10-24T06:33:54.051Z,100331.88
2022-10-24T06:36:21.646Z,100323.66
2022-10-24T06:38:49.599Z,100332.25
2022-10-24T06:41:18.038Z,100326.91
2022-10-24T06:43:45.660Z,100327.72
2022-10-24T06:46:15.859Z,100325.88
2022-10-24T06:48:45.570Z,100327.50
2022-10-24T06:51:15.978Z,100337.16
2022-10-24T06:53:43.529Z,100328.69
2022-10-24T06:56:11.333Z,100332.59
2022-10-24T06:58:39.968Z,100325.28
2022-10-24T07:01:12.739Z,100325.91
2022-10-24T07:03:40.374Z,100328.97
2022-10-24T07:06:13.601Z,100330.91
2022-10-24T07:08:41.314Z,100335.78
2022-10-24T07:11:08.844Z,100335.31
2022-10-24T07:13:36.394Z,100331.81
2022-10-24T07:16:03.953Z,100327.41
2022-10-24T07:18:31.548Z,100340.03
2022-10-24T07:21:02.761Z,100338.91
2022-10-24T07:23:31.989Z,100343.97
2022-10-24T07:26:02.739Z,100338.16
2022-10-24T07:28:30.626Z,100344.44
2022-10-24T07:30:58.242Z,100346.81
2022-10-24T07:33:26.303Z,100352.06
2022-10-24T07:35:53.860Z,100346.63
2022-10-24T07:38:21.774Z,100349.22
2022-10-24T07:40:51.134Z,100349.09
2022-10-24T07:43:18.870Z,100347.88
2022-10-24T07:45:50.570Z,100348.47
2022-10-24T07:48:19.908Z,100338.09
2022-10-24T07:50:48.497Z,100335.66
2022-10-24T07:53:17.022Z,100338.34
2022-10-24T07:55:45.175Z,100335.88
2022-10-24T07:58:14.862Z,100328.50
2022-10-24T08:00:45.226Z,100329.97
2022-10-24T08:03:13.356Z,100319.41
2022-10-24T08:05:41.358Z,100320.09
2022-10-24T08:08:30.946Z,100320.88
2022-10-24T08:10:57.101Z,100321.06
2022-10-24T08:13:26.024Z,100319.13
2022-10-24T08:15:53.914Z,100319.22
2022-10-24T08:18:21.430Z,100309.22
2022-10-24T08:20:57.927Z,100325.06
2022-10-24T08:23:25.799Z,100316.75
2022-10-24T08:25:53.697Z,100321.69
2022-10-24T08:28:23.418Z,100318.66
2022-10-24T08:30:59.617Z,100328.78
2022-10-24T08:33:27.849Z,100332.50
2022-10-24T08:35:59.780Z,100317.47
2022-10-24T08:38:27.760Z,100322.06
2022-10-24T08:40:55.489Z,100331.09
2022-10-24T08:43:23.689Z,100318.50
2022-10-24T08:45:59.629Z,100323.72
2022-10-24T08:48:33.134Z,100322.47
2022-10-24T08:51:08.801Z,100304.22
2022-10-24T08:53:36.931Z,100297.44
2022-10-24T08:56:05.146Z,100301.00
2022-10-24T08:58:37.004Z,100298.13
2022-10-24T09:01:13.704Z,100299.75
2022-10-24T09:04:01.340Z,100295.84
2022-10-24T09:06:31.127Z,100299.41
2022-10-24T09:09:00.970Z,100292.75
2022-10-24T09:11:37.778Z,100299.59
2022-10-24T09:14:12.881Z,100289.84
2022-10-24T09:16:42.962Z,100299.63
2022-10-24T09:19:15.648Z,100301.91
2022-10-24T09:21:45.403Z,100298.56
2022-10-24T09:24:24.784Z,100295.75
2022-10-24T09:26:52.362Z,100285.66
2022-10-24T09:29:19.903Z,100289.84
2022-10-24T09:31:49.371Z,100289.44
2022-10-24T09:34:18.695Z,100294.00
2022-10-24T09:36:46.650Z,100299.75
2022-10-24T09:39:34.454Z,100290.38
2022-10-24T09:42:03.022Z,100288.59
2022-10-24T09:44:40.986Z,100298.97
2022-10-24T09:47:24.725Z,100299.19
2022-10-24T09:49:53.892Z,100292.06
2022-10-24T09:52:25.593Z,100291.22
2022-10-24T09:55:08.358Z,100300.34
2022-10-24T09:57:40.835Z,100307.44
2022-10-24T10:00:23.030Z,100301.31
2022-10-24T10:03:02.881Z,100297.09
2022-10-24T10:05:44.350Z,100306.56
2022-10-24T10:08:17.079Z,100303.84
2022-10-24T10:10:44.655Z,100308.44
2022-10-24T10:13:23.882Z,100307.91
2022-10-24T10:15:54.493Z,100306.56
2022-10-24T10:18:33.109Z,100303.31
2022-10-24T10:21:08.818Z,100296.09
2022-10-24T10:23:39.101Z,100299.09
2022-10-24T10:26:27.200Z,100302.31
2022-10-24T10:29:00.650Z,100299.13
2022-10-24T10:31:35.475Z,100302.47
2022-10-24T10:34:18.885Z,100305.47
2022-10-24T10:37:03.809Z,100299.88
2022-10-24T10:39:48.879Z,100288.25
2022-10-24T10:42:22.676Z,100296.66
2022-10-24T10:45:04.155Z,100301.84
2022-10-24T10:47:41.023Z,100295.91
2022-10-24T10:50:23.294Z,100306.69
2022-10-24T10:52:52.329Z,100302.69
2022-10-24T10:55:28.740Z,100298.31
2022-10-24T10:58:07.761Z,100301.53
2022-10-24T11:00:48.767Z,100306.34
2022-10-24T11:03:24.986Z,100306.63
2022-10-24T11:06:06.602Z,100309.06
2022-10-24T11:08:59.366Z,100306.34
2022-10-24T11:11:32.091Z,100300.94
2022-10-24T11:14:05.421Z,100304.63
2022-10-24T11:16:33.402Z,100306.50
2022-10-24T11:19:05.497Z,100305.69
2022-10-24T11:21:36.315Z,100308.28
2022-10-24T11:24:13.750Z,100308.84
2022-10-24T11:26:46.388Z,100303.34
2022-10-24T11:29:20.275Z,100302.84
2022-10-24T11:31:51.152Z,100294.25
2022-10-24T11:34:22.510Z,100296.94
2022-10-24T11:36:55.924Z,100299.00
2022-10-24T11:39:28.846Z,100294.69
2022-10-24T11:42:02.472Z,100295.25
2022-10-24T11:44:47.370Z,100293.59
2022-10-24T11:47:47.048Z,100302.00
2022-10-24T11:50:25.510Z,100295.03
2022-10-24T11:52:59.606Z,100294.78
2022-10-24T11:55:37.317Z,100293.84
2022-10-24T11:58:08.381Z,100289.81
2022-10-24T12:00:48.283Z,100285.28
2022-10-24T12:03:36.906Z,100292.78
2022-10-24T12:06:20.878Z,100294.63
2022-10-24T12:09:24.994Z,100291.06
2022-10-24T12:12:13.838Z,100292.41
2022-10-24T12:15:06.559Z,100279.44
2022-10-24T12:17:47.410Z,100285.66
2022-10-24T12:20:18.937Z,100291.28
2022-10-24T12:22:47.993Z,100282.13
2022-10-24T12:25:22.099Z,100285.19
2022-10-24T12:27:57.019Z,100275.94
2022-10-24T12:30:26.080Z,100280.78
2022-10-24T12:32:58.497Z,100288.72
2022-10-24T12:35:51.782Z,100279.28
2022-10-24T12:39:07.539Z,100278.09
2022-10-24T12:41:43.369Z,100271.19
2022-10-24T12:44:51.437Z,100269.63
2022-10-24T12:47:38.440Z,100273.66
2022-10-24T12:50:43.278Z,100276.03
2022-10-24T12:53:32.220Z,100270.81
2022-10-24T12:59:18.394Z,100274.69
2022-10-24T13:01:47.632Z,100260.50
2022-10-24T13:04:48.506Z,100279.13
2022-10-24T13:07:48.514Z,100278.09
2022-10-24T13:10:36.418Z,100269.50
2022-10-24T13:13:28.231Z,100271.28
2022-10-24T13:16:01.811Z,100267.81
2022-10-24T13:18:44.262Z,100272.69
2022-10-24T13:21:25.317Z,100261.41
2022-10-24T13:23:53.161Z,100257.38
2022-10-24T13:26:40.413Z,100279.00
2022-10-24T13:29:14.669Z,100262.78
2022-10-24T13:31:46.657Z,100263.91
2022-10-24T13:34:18.786Z,100265.75
2022-10-24T13:36:50.953Z,100270.81
2022-10-24T13:39:22.853Z,100265.66
2022-10-24T13:41:56.999Z,100260.53
2022-10-24T13:44:30.581Z,100268.25
2022-10-24T13:47:03.478Z,100266.81
2022-10-24T13:49:35.247Z,100264.00
2022-10-24T13:52:09.970Z,100259.28
2022-10-24T13:54:39.114Z,100267.16
2022-10-24T13:57:25.207Z,100264.31
2022-10-24T14:00:00.917Z,100278.22
2022-10-24T14:02:33.666Z,100282.56
2022-10-24T14:05:03.616Z,100287.06
2022-10-24T14:07:34.582Z,100303.25
2022-10-24T14:10:05.923Z,100298.28
2022-10-24T14:12:36.227Z,100297.88
2022-10-24T14:15:06.353Z,100312.53
2022-10-24T14:17:35.771Z,100297.84
2022-10-24T14:20:21.897Z,100314.59
2022-10-24T14:22:50.796Z,100320.38
2022-10-24T14:25:32.973Z,100323.94
2022-10-24T14:28:02.891Z,100329.81
2022-10-24T14:30:35.061Z,100328.97
2022-10-24T14:33:21.961Z,100328.91
2022-10-24T14:35:52.379Z,100329.13
2022-10-24T14:38:24.638Z,100328.16
2022-10-24T14:41:06.385Z,100319.13
2022-10-24T14:43:37.149Z,100319.06
2022-10-24T14:46:25.943Z,100319.06
2022-10-24T14:48:54.634Z,100316.84
2022-10-24T14:51:27.398Z,100318.38
2022-10-24T14:53:58.113Z,100314.50
2022-10-24T14:56:28.157Z,100316.63
2022-10-24T14:58:58.291Z,100322.25
2022-10-24T15:01:26.734Z,100339.09
2022-10-24T15:03:56.095Z,100333.81
2022-10-24T15:06:26.257Z,100334.06
2022-10-24T15:09:07.075Z,100328.13
2022-10-24T15:11:39.354Z,100337.44
2022-10-24T15:14:07.524Z,100344.13
2022-10-24T15:16:37.577Z,100350.56
2022-10-24T15:19:06.999Z,100349.50
2022-10-24T15:21:38.838Z,100341.91
2022-10-24T15:24:19.489Z,100340.75
2022-10-24T15:26:47.442Z,100349.78
2022-10-24T15:29:20.693Z,100358.28
2022-10-24T15:31:50.403Z,100379.19
2022-10-24T15:34:19.629Z,100370.31
2022-10-24T15:36:48.781Z,100389.75
2022-10-24T15:39:20.938Z,100369.94
2022-10-24T15:41:49.069Z,100378.31
2022-10-24T15:44:20.481Z,100370.22
2022-10-24T15:46:49.422Z,100374.97
2022-10-24T15:49:17.298Z,100381.84
2022-10-24T15:51:50.081Z,100397.56
2022-10-24T15:54:21.775Z,100403.97
2022-10-24T15:56:49.433Z,100405.81
2022-10-24T15:59:18.403Z,100403.16
2022-10-24T16:01:49.613Z,100403.22
2022-10-24T16:04:18.673Z,100387.00
2022-10-24T16:06:46.250Z,100384.66
2022-10-24T16:09:16.196Z,100386.16
2022-10-24T16:11:45.102Z,100388.47
2022-10-24T16:14:14.610Z,100392.03
2022-10-24T16:16:42.243Z,100391.53
2022-10-24T16:19:10.580Z,100403.53
2022-10-24T16:21:40.447Z,100399.88
2022-10-24T16:24:08.739Z,100406.13
2022-10-24T16:26:38.557Z,100404.34
2022-10-24T16:29:14.458Z,100410.97
2022-10-24T16:31:43.810Z,100418.44
2022-10-24T16:34:11.349Z,100415.38
2022-10-24T16:36:40.865Z,100426.91
2022-10-24T16:39:08.918Z,100431.66
2022-10-24T16:41:36.605Z,100443.44
2022-10-24T16:44:04.694Z,100448.78
2022-10-24T16:46:33.790Z,100449.56
2022-10-24T16:49:01.354Z,100451.22
2022-10-24T16:51:32.257Z,100461.13
2022-10-24T16:54:00.418Z,100459.13
2022-10-24T16:56:28.302Z,100466.75
2022-10-24T16:58:55.875Z,100471.16
2022-10-24T17:01:23.893Z,100464.38
2022-10-24T17:03:52.852Z,100476.13
2022-10-24T17:06:20.391Z,100471.59
2022-10-24T17:08:47.963Z,100476.56
2022-10-24T17:11:43.420Z,100474.75
2022-10-24T17:14:03.177Z,100479.66
2022-10-24T17:16:32.122Z,100479.47
2022-10-24T17:19:15.707Z,100476.78
2022-10-24T17:21:46.674Z,100488.91
2022-10-24T17:24:15.343Z,100494.28
2022-10-24T17:26:43.169Z,100492.41
2022-10-24T17:29:13.765Z,100490.78
2022-10-24T17:31:41.571Z,100494.72
2022-10-24T17:34:11.734Z,100494.31
2022-10-24T17:36:41.172Z,100497.44
2022-10-24T17:39:14.315Z,100494.16
2022-10-24T17:41:42.610Z,100494.56
2022-10-24T17:44:15.938Z,100500.13
2022-10-24T17:46:44.357Z,100501.97
2022-10-24T17:49:20.791Z,100496.88
2022-10-24T17:51:49.710Z,100506.50
2022-10-24T17:54:17.443Z,100508.41
2022-10-24T17:56:44.976Z,100509.41
2022-10-24T17:59:12.758Z,100519.31
2022-10-24T18:01:40.419Z,100511.72
2022-10-24T18:04:08.563Z,100517.50
2022-10-24T18:06:40.799Z,100519.34
2022-10-24T18:09:11.002Z,100524.09
2022-10-24T18:11:39.803Z,100522.47
2022-10-24T18:14:07.541Z,100531.75
2022-10-24T18:16:37.720Z,100529.31
2022-10-24T18:19:06.175Z,100524.56
2022-10-24T18:21:34.086Z,100533.66
2022-10-24T18:24:02.966Z,100534.09
2022-10-24T18:26:30.518Z,100534.28
2022-10-24T18:28:58.951Z,100537.41
2022-10-24T18:31:28.229Z,100549.13
2022-10-24T18:33:56.450Z,100541.53
2022-10-24T18:36:26.073Z,100548.97
2022-10-24T18:38:55.360Z,100551.63
2022-10-24T18:41:36.302Z,100549.78
2022-10-24T18:44:21.334Z,100558.00
2022-10-24T18:46:49.651Z,100552.88
2022-10-24T18:49:18.122Z,100551.25
2022-10-24T18:51:52.068Z,100554.16
2022-10-24T18:54:21.372Z,100560.09
2022-10-24T18:56:51.871Z,100567.53
2022-10-24T18:59:21.324Z,100564.63
2022-10-24T19:01:58.914Z,100573.28
2022-10-24T19:04:27.166Z,100565.00
2022-10-24T19:06:58.442Z,100568.91
2022-10-24T19:09:27.602Z,100570.34
2022-10-24T19:11:56.802Z,100574.66
2022-10-24T19:14:25.104Z,100576.50
2022-10-24T19:16:54.223Z,100574.03
2022-10-24T19:19:27.221Z,100569.50
2022-10-24T19:21:55.589Z,100569.94
2022-10-24T19:24:23.434Z,100573.63
2022-10-24T19:26:50.984Z,100579.00
2022-10-24T19:29:19.923Z,100575.28
2022-10-24T19:31:47.552Z,100573.22
2022-10-24T19:34:16.636Z,100581.03
2022-10-24T19:36:44.210Z,100581.63
2022-10-24T19:39:11.879Z,100579.78
2022-10-24T19:41:39.448Z,100579.34
2022-10-24T19:44:06.991Z,100587.78
2022-10-24T19:46:35.903Z,100583.03
2022-10-24T19:49:03.682Z,100588.19
2022-10-24T19:51:31.219Z,100589.78
2022-10-24T19:53:58.780Z,100587.94
2022-10-24T19:56:28.985Z,100589.59
2022-10-24T19:58:57.170Z,100592.88
2022-10-24T20:01:26.920Z,100598.03
2022-10-24T20:03:57.055Z,100596.78
2022-10-24T20:06:25.866Z,100603.53
2022-10-24T20:08:53.498Z,100605.19
2022-10-24T20:11:21.265Z,100598.59
2022-10-24T20:13:50.237Z,100596.50
2022-10-24T20:16:18.082Z,100606.78
2022-10-24T20:18:45.757Z,100623.66
2022-10-24T20:21:17.612Z,100617.31
2022-10-24T20:23:48.507Z,100615.63
2022-10-24T20:26:18.500Z,100622.84
2022-10-24T20:28:48.430Z,100615.84
2022-10-24T20:31:20.799Z,100627.16
2022-10-24T20:33:48.614Z,100625.13
2022-10-24T20:36:17.561Z,100630.28
2022-10-24T20:38:45.239Z,100629.22
2022-10-24T20:41:12.821Z,100630.88
2022-10-24T20:43:40.438Z,100625.50
2022-10-24T20:46:08.131Z,100634.13
2022-10-24T20:48:36.562Z,100638.47
2022-10-24T20:51:06.058Z,100635.78
2022-10-24T20:53:34.944Z,100641.97
2022-10-24T20:56:07.617Z,100636.81
2022-10-24T20:58:38.090Z,100643.81
2022-10-24T21:01:07.582Z,100645.09
2022-10-24T21:03:35.984Z,100647.13
2022-10-24T21:06:03.806Z,100645.72
2022-10-24T21:08:31.676Z,100653.75
2022-10-24T21:11:00.557Z,100652.13
2022-10-24T21:13:28.082Z,100659.91
2022-10-24T21:15:57.246Z,100659.09
2022-10-24T21:18:24.866Z,100662.81
2022-10-24T21:20:52.435Z,100666.50
2022-10-24T21:23:20.022Z,100662.81
2022-10-24T21:25:47.554Z,100671.03
2022-10-24T21:28:16.430Z,100686.06
2022-10-24T21:30:43.941Z,100681.56
2022-10-24T21:33:11.533Z,100684.03
2022-10-24T21:35:39.621Z,100682.16
2022-10-24T21:38:07.193Z,100684.63
2022-10-24T21:40:34.780Z,100687.28
2022-10-24T21:43:03.117Z,100692.44
2022-10-24T21:45:32.581Z,100680.09
2022-10-24T21:48:00.163Z,100673.91
2022-10-24T21:50:27.703Z,100688.13
2022-10-24T21:52:55.279Z,100685.66
2022-10-24T21:55:22.962Z,100685.25
2022-10-24T21:57:50.500Z,100692.44
2022-10-24T22:00:18.145Z,100698.81
2022-10-24T22:02:47.303Z,100696.16
2022-10-24T22:05:15.082Z,100698.03
2022-10-24T22:07:43.974Z,100696.97
2022-10-24T22:10:13.738Z,100702.75
2022-10-24T22:12:41.256Z,100702.75
2022-10-24T22:15:09.363Z,100704.84
2022-10-24T22:17:36.934Z,100707.09
2022-10-24T22:20:06.682Z,100706.94
2022-10-24T22:22:34.222Z,100714.97
2022-10-24T22:25:01.976Z,100719.09
2022-10-24T22:27:29.487Z,100713.53
2022-10-24T22:29:57.057Z,100714.38
2022-10-24T22:32:24.958Z,100710.84
2022-10-24T22:34:59.502Z,100720.34
2022-10-24T22:37:30.975Z,100718.91
2022-10-24T22:39:59.436Z,100717.25
2022-10-24T22:42:27.322Z,100709.03
2022-10-24T22:44:56.329Z,100718.69
2022-10-24T22:47:42.875Z,100712.31
2022-10-24T22:50:26.067Z,100720.94
2022-10-24T22:52:55.654Z,100729.59
2022-10-24T22:55:32.631Z,100735.31
2022-10-24T22:58:00.698Z,100733.28
2022-10-24T23:00:28.784Z,100725.84
2022-10-24T23:03:02.733Z,100731.78
2022-10-24T23:05:36.982Z,100733.25
2022-10-24T23:08:10.425Z,100733.84
2022-10-24T23:10:39.863Z,100742.72
2022-10-24T23:13:09.335Z,100740.63
2022-10-24T23:15:37.510Z,100744.78
2022-10-24T23:18:05.770Z,100748.88
2022-10-24T23:20:35.920Z,100748.06
2022-10-24T23:23:16.233Z,100751.56
2022-10-24T23:25:53.329Z,100761.22
2022-10-24T23:28:30.208Z,100761.47
2022-10-24T23:30:58.396Z,100771.94
2022-10-24T23:33:29.214Z,100763.91
2022-10-24T23:36:00.165Z,100755.06
2022-10-24T23:38:28.772Z,100757.13
2022-10-24T23:40:58.369Z,100766.00
2022-10-24T23:43:26.419Z,100758.78
2022-10-24T23:45:59.188Z,100756.09
2022-10-24T23:48:40.183Z,100763.31
2022-10-24T23:51:12.841Z,100766.00
2022-10-24T23:53:50.246Z,100754.66
2022-10-24T23:56:21.446Z,100767.00
2022-10-24T23:58:49.408Z,100761.22
